Terminal Aerodrome Forecast
Issued by NWS

Home | Current Version | Previous Version | Graphics & Text | Print | Product List | Glossary On
Versions: 1 2 3 4 5 6 7 8 9 10 11 12 13 14 15 16
857
FTUS43 KIWX 140132 AAA
TAFSBN
TAF AMD
KSBN 140132Z 1402/1424 31018G26KT 4SM -SN BR OVC025
      TEMPO 1402/1404 2SM -SN BR
     FM140400 34017G24KT P6SM -SN OVC025
     FM140800 35010KT P6SM BKN025
     FM141300 01005KT P6SM BKN040=

USA.gov is the U.S. government's official web portal to all federal, state and local government web resources and services.